sensor_id;sensor_type;location;lat;lon;timestamp;P1;durP1;ratioP1;P2;durP2;ratioP2
54123;SDS011;55741;53.252;5.788;2023-08-07T00:00:55;24.67;;;5.40;;
54123;SDS011;55741;53.252;5.788;2023-08-07T00:03:21;21.80;;;4.25;;
54123;SDS011;55741;53.252;5.788;2023-08-07T00:05:47;17.42;;;3.38;;
54123;SDS011;55741;53.252;5.788;2023-08-07T00:08:14;23.30;;;4.35;;
54123;SDS011;55741;53.252;5.788;2023-08-07T00:10:39;18.02;;;4.35;;
54123;SDS011;55741;53.252;5.788;2023-08-07T00:13:05;17.80;;;4.15;;
54123;SDS011;55741;53.252;5.788;2023-08-07T00:15:31;12.25;;;4.00;;
54123;SDS011;55741;53.252;5.788;2023-08-07T00:17:58;16.77;;;3.10;;
54123;SDS011;55741;53.252;5.788;2023-08-07T00:20:25;19.08;;;3.10;;
54123;SDS011;55741;53.252;5.788;2023-08-07T00:22:51;19.38;;;3.25;;
54123;SDS011;55741;53.252;5.788;2023-08-07T00:25:17;18.77;;;3.42;;
54123;SDS011;55741;53.252;5.788;2023-08-07T00:27:42;16.65;;;3.38;;
54123;SDS011;55741;53.252;5.788;2023-08-07T00:30:08;16.10;;;3.80;;
54123;SDS011;55741;53.252;5.788;2023-08-07T00:32:35;18.95;;;5.07;;
54123;SDS011;55741;53.252;5.788;2023-08-07T00:35:00;16.02;;;4.05;;
54123;SDS011;55741;53.252;5.788;2023-08-07T00:37:28;15.05;;;3.80;;
54123;SDS011;55741;53.252;5.788;2023-08-07T00:39:53;16.13;;;3.70;;
54123;SDS011;55741;53.252;5.788;2023-08-07T00:42:19;14.57;;;3.53;;
54123;SDS011;55741;53.252;5.788;2023-08-07T00:44:45;23.63;;;4.40;;
54123;SDS011;55741;53.252;5.788;2023-08-07T00:47:11;18.45;;;4.80;;
54123;SDS011;55741;53.252;5.788;2023-08-07T00:49:37;17.02;;;4.70;;
54123;SDS011;55741;53.252;5.788;2023-08-07T00:52:03;18.27;;;4.13;;
54123;SDS011;55741;53.252;5.788;2023-08-07T00:54:29;16.80;;;4.60;;
54123;SDS011;55741;53.252;5.788;2023-08-07T00:56:57;17.70;;;4.25;;
54123;SDS011;55741;53.252;5.788;2023-08-07T00:59:28;22.33;;;4.97;;
54123;SDS011;55741;53.252;5.788;2023-08-07T01:01:54;19.85;;;4.20;;
54123;SDS011;55741;53.252;5.788;2023-08-07T01:04:20;20.20;;;4.13;;
54123;SDS011;55741;53.252;5.788;2023-08-07T01:06:46;21.23;;;4.47;;
54123;SDS011;55741;53.252;5.788;2023-08-07T01:09:12;23.60;;;4.70;;
54123;SDS011;55741;53.252;5.788;2023-08-07T01:11:45;24.45;;;4.85;;
54123;SDS011;55741;53.252;5.788;2023-08-07T01:16:42;25.73;;;4.45;;
54123;SDS011;55741;53.252;5.788;2023-08-07T01:19:25;20.70;;;5.17;;
54123;SDS011;55741;53.252;5.788;2023-08-07T01:24:37;15.90;;;4.00;;
54123;SDS011;55741;53.252;5.788;2023-08-07T01:27:15;17.55;;;3.95;;
54123;SDS011;55741;53.252;5.788;2023-08-07T01:35:03;14.77;;;3.58;;
54123;SDS011;55741;53.252;5.788;2023-08-07T01:37:33;17.13;;;4.60;;
54123;SDS011;55741;53.252;5.788;2023-08-07T01:40:03;17.25;;;3.75;;
54123;SDS011;55741;53.252;5.788;2023-08-07T01:42:31;13.45;;;3.60;;
54123;SDS011;55741;53.252;5.788;2023-08-07T01:44:57;16.45;;;3.88;;
54123;SDS011;55741;53.252;5.788;2023-08-07T01:47:23;18.75;;;3.88;;
54123;SDS011;55741;53.252;5.788;2023-08-07T01:49:49;20.90;;;4.35;;
54123;SDS011;55741;53.252;5.788;2023-08-07T01:52:15;17.77;;;3.65;;
54123;SDS011;55741;53.252;5.788;2023-08-07T01:54:41;17.92;;;3.63;;
54123;SDS011;55741;53.252;5.788;2023-08-07T01:57:07;15.13;;;3.70;;
54123;SDS011;55741;53.252;5.788;2023-08-07T01:59:32;14.57;;;3.72;;
54123;SDS011;55741;53.252;5.788;2023-08-07T02:01:58;14.25;;;3.13;;
54123;SDS011;55741;53.252;5.788;2023-08-07T02:04:24;17.83;;;4.75;;
54123;SDS011;55741;53.252;5.788;2023-08-07T02:06:50;19.85;;;3.70;;
54123;SDS011;55741;53.252;5.788;2023-08-07T02:09:16;17.02;;;4.32;;
54123;SDS011;55741;53.252;5.788;2023-08-07T02:11:41;12.82;;;3.60;;
54123;SDS011;55741;53.252;5.788;2023-08-07T02:14:08;10.90;;;3.45;;
54123;SDS011;55741;53.252;5.788;2023-08-07T02:16:33;13.52;;;3.30;;
54123;SDS011;55741;53.252;5.788;2023-08-07T02:18:59;10.85;;;3.60;;
54123;SDS011;55741;53.252;5.788;2023-08-07T02:21:25;12.35;;;4.05;;
54123;SDS011;55741;53.252;5.788;2023-08-07T02:26:36;12.85;;;3.78;;
54123;SDS011;55741;53.252;5.788;2023-08-07T02:29:02;14.30;;;3.90;;
54123;SDS011;55741;53.252;5.788;2023-08-07T02:31:29;14.63;;;3.70;;
54123;SDS011;55741;53.252;5.788;2023-08-07T02:33:54;13.25;;;3.47;;
54123;SDS011;55741;53.252;5.788;2023-08-07T02:36:20;20.83;;;4.40;;
54123;SDS011;55741;53.252;5.788;2023-08-07T02:38:48;21.95;;;5.05;;
54123;SDS011;55741;53.252;5.788;2023-08-07T02:41:13;29.52;;;6.65;;
54123;SDS011;55741;53.252;5.788;2023-08-07T02:43:39;32.83;;;6.30;;
54123;SDS011;55741;53.252;5.788;2023-08-07T02:46:05;32.33;;;6.68;;
54123;SDS011;55741;53.252;5.788;2023-08-07T02:48:31;27.05;;;6.03;;
54123;SDS011;55741;53.252;5.788;2023-08-07T02:50:56;31.08;;;6.03;;
54123;SDS011;55741;53.252;5.788;2023-08-07T02:53:22;25.55;;;5.85;;
54123;SDS011;55741;53.252;5.788;2023-08-07T02:55:48;17.60;;;4.60;;
54123;SDS011;55741;53.252;5.788;2023-08-07T02:58:14;20.08;;;4.60;;
54123;SDS011;55741;53.252;5.788;2023-08-07T03:00:40;17.35;;;4.63;;
54123;SDS011;55741;53.252;5.788;2023-08-07T03:03:05;25.48;;;4.75;;
54123;SDS011;55741;53.252;5.788;2023-08-07T03:05:31;21.77;;;4.38;;
54123;SDS011;55741;53.252;5.788;2023-08-07T03:07:57;23.20;;;4.40;;
54123;SDS011;55741;53.252;5.788;2023-08-07T03:10:23;18.88;;;4.47;;
54123;SDS011;55741;53.252;5.788;2023-08-07T03:12:49;16.58;;;4.30;;
54123;SDS011;55741;53.252;5.788;2023-08-07T03:15:14;21.73;;;4.85;;
54123;SDS011;55741;53.252;5.788;2023-08-07T03:17:40;16.20;;;4.90;;
54123;SDS011;55741;53.252;5.788;2023-08-07T03:20:06;21.80;;;4.68;;
54123;SDS011;55741;53.252;5.788;2023-08-07T03:22:32;22.02;;;5.15;;
54123;SDS011;55741;53.252;5.788;2023-08-07T03:24:58;15.65;;;4.38;;
54123;SDS011;55741;53.252;5.788;2023-08-07T03:27:24;15.30;;;4.18;;
54123;SDS011;55741;53.252;5.788;2023-08-07T03:29:50;21.15;;;5.05;;
54123;SDS011;55741;53.252;5.788;2023-08-07T03:32:15;20.70;;;4.50;;
54123;SDS011;55741;53.252;5.788;2023-08-07T03:34:42;18.77;;;4.82;;
54123;SDS011;55741;53.252;5.788;2023-08-07T03:37:08;14.32;;;4.35;;
54123;SDS011;55741;53.252;5.788;2023-08-07T03:39:35;16.27;;;4.40;;
54123;SDS011;55741;53.252;5.788;2023-08-07T03:42:01;15.32;;;3.35;;
54123;SDS011;55741;53.252;5.788;2023-08-07T03:44:26;14.20;;;4.32;;
54123;SDS011;55741;53.252;5.788;2023-08-07T03:46:52;15.80;;;4.57;;
54123;SDS011;55741;53.252;5.788;2023-08-07T03:49:21;18.30;;;4.38;;
54123;SDS011;55741;53.252;5.788;2023-08-07T03:51:47;18.80;;;4.32;;
54123;SDS011;55741;53.252;5.788;2023-08-07T03:54:13;21.65;;;4.20;;
54123;SDS011;55741;53.252;5.788;2023-08-07T03:56:39;21.58;;;5.15;;
54123;SDS011;55741;53.252;5.788;2023-08-07T03:59:05;21.27;;;5.55;;
54123;SDS011;55741;53.252;5.788;2023-08-07T04:01:32;29.35;;;6.00;;
54123;SDS011;55741;53.252;5.788;2023-08-07T04:03:57;30.05;;;6.32;;
54123;SDS011;55741;53.252;5.788;2023-08-07T04:06:23;28.50;;;5.95;;
54123;SDS011;55741;53.252;5.788;2023-08-07T04:08:52;18.45;;;5.30;;
54123;SDS011;55741;53.252;5.788;2023-08-07T04:11:17;25.05;;;5.30;;
54123;SDS011;55741;53.252;5.788;2023-08-07T04:13:43;17.02;;;4.70;;
54123;SDS011;55741;53.252;5.788;2023-08-07T04:16:09;19.40;;;4.65;;
54123;SDS011;55741;53.252;5.788;2023-08-07T04:18:35;25.17;;;5.45;;
54123;SDS011;55741;53.252;5.788;2023-08-07T04:21:01;23.10;;;4.72;;
54123;SDS011;55741;53.252;5.788;2023-08-07T04:23:27;22.13;;;5.63;;
54123;SDS011;55741;53.252;5.788;2023-08-07T04:25:53;19.80;;;4.75;;
54123;SDS011;55741;53.252;5.788;2023-08-07T04:28:20;22.65;;;5.68;;
54123;SDS011;55741;53.252;5.788;2023-08-07T04:30:48;16.45;;;5.00;;
54123;SDS011;55741;53.252;5.788;2023-08-07T04:33:16;18.58;;;5.15;;
54123;SDS011;55741;53.252;5.788;2023-08-07T04:35:41;19.77;;;4.70;;
54123;SDS011;55741;53.252;5.788;2023-08-07T04:38:07;15.18;;;4.43;;
54123;SDS011;55741;53.252;5.788;2023-08-07T04:40:35;21.92;;;5.15;;
54123;SDS011;55741;53.252;5.788;2023-08-07T04:43:00;21.83;;;5.18;;
54123;SDS011;55741;53.252;5.788;2023-08-07T04:45:27;22.15;;;4.85;;
54123;SDS011;55741;53.252;5.788;2023-08-07T04:47:53;24.00;;;5.13;;
54123;SDS011;55741;53.252;5.788;2023-08-07T04:50:18;18.30;;;4.82;;
54123;SDS011;55741;53.252;5.788;2023-08-07T04:52:44;20.20;;;4.95;;
54123;SDS011;55741;53.252;5.788;2023-08-07T04:55:10;19.77;;;4.82;;
54123;SDS011;55741;53.252;5.788;2023-08-07T04:57:36;20.90;;;6.05;;
54123;SDS011;55741;53.252;5.788;2023-08-07T05:00:02;22.15;;;5.03;;
54123;SDS011;55741;53.252;5.788;2023-08-07T05:02:28;12.95;;;4.18;;
54123;SDS011;55741;53.252;5.788;2023-08-07T05:04:54;17.48;;;5.15;;
54123;SDS011;55741;53.252;5.788;2023-08-07T05:07:19;17.80;;;4.40;;
54123;SDS011;55741;53.252;5.788;2023-08-07T05:09:45;20.65;;;4.65;;
54123;SDS011;55741;53.252;5.788;2023-08-07T05:12:11;17.92;;;5.03;;
54123;SDS011;55741;53.252;5.788;2023-08-07T05:14:37;26.67;;;6.32;;
54123;SDS011;55741;53.252;5.788;2023-08-07T05:17:03;21.70;;;4.82;;
54123;SDS011;55741;53.252;5.788;2023-08-07T05:19:29;20.48;;;5.60;;
54123;SDS011;55741;53.252;5.788;2023-08-07T05:21:55;20.52;;;5.35;;
54123;SDS011;55741;53.252;5.788;2023-08-07T05:24:20;19.85;;;5.10;;
54123;SDS011;55741;53.252;5.788;2023-08-07T05:26:46;21.63;;;5.60;;
54123;SDS011;55741;53.252;5.788;2023-08-07T05:29:12;20.92;;;5.18;;
54123;SDS011;55741;53.252;5.788;2023-08-07T05:31:38;23.17;;;5.32;;
54123;SDS011;55741;53.252;5.788;2023-08-07T05:34:04;12.07;;;3.53;;
54123;SDS011;55741;53.252;5.788;2023-08-07T05:36:29;16.92;;;4.50;;
54123;SDS011;55741;53.252;5.788;2023-08-07T05:38:56;22.42;;;4.85;;
54123;SDS011;55741;53.252;5.788;2023-08-07T05:41:24;18.10;;;5.00;;
54123;SDS011;55741;53.252;5.788;2023-08-07T05:43:50;14.02;;;4.35;;
54123;SDS011;55741;53.252;5.788;2023-08-07T05:46:16;12.02;;;3.67;;
54123;SDS011;55741;53.252;5.788;2023-08-07T05:48:41;13.07;;;3.45;;
54123;SDS011;55741;53.252;5.788;2023-08-07T05:51:07;13.68;;;3.42;;
54123;SDS011;55741;53.252;5.788;2023-08-07T05:53:34;10.07;;;3.05;;
54123;SDS011;55741;53.252;5.788;2023-08-07T05:56:00;15.07;;;2.90;;
54123;SDS011;55741;53.252;5.788;2023-08-07T05:58:26;15.90;;;3.78;;
54123;SDS011;55741;53.252;5.788;2023-08-07T06:00:52;16.00;;;3.67;;
54123;SDS011;55741;53.252;5.788;2023-08-07T06:03:18;16.10;;;4.05;;
54123;SDS011;55741;53.252;5.788;2023-08-07T06:05:43;12.93;;;3.78;;
54123;SDS011;55741;53.252;5.788;2023-08-07T06:08:09;11.55;;;3.35;;
54123;SDS011;55741;53.252;5.788;2023-08-07T06:10:35;15.80;;;3.85;;
54123;SDS011;55741;53.252;5.788;2023-08-07T06:13:02;16.15;;;3.95;;
54123;SDS011;55741;53.252;5.788;2023-08-07T06:15:29;13.25;;;3.40;;
54123;SDS011;55741;53.252;5.788;2023-08-07T06:17:56;18.13;;;3.83;;
54123;SDS011;55741;53.252;5.788;2023-08-07T06:20:22;16.92;;;3.47;;
54123;SDS011;55741;53.252;5.788;2023-08-07T06:22:48;17.10;;;4.05;;
54123;SDS011;55741;53.252;5.788;2023-08-07T06:25:13;13.50;;;3.70;;
54123;SDS011;55741;53.252;5.788;2023-08-07T06:27:39;21.77;;;4.47;;
54123;SDS011;55741;53.252;5.788;2023-08-07T06:30:05;13.73;;;3.85;;
54123;SDS011;55741;53.252;5.788;2023-08-07T06:32:31;10.18;;;2.90;;
54123;SDS011;55741;53.252;5.788;2023-08-07T06:34:57;16.75;;;3.45;;
54123;SDS011;55741;53.252;5.788;2023-08-07T06:37:23;12.82;;;3.30;;
54123;SDS011;55741;53.252;5.788;2023-08-07T06:39:49;14.43;;;3.70;;
54123;SDS011;55741;53.252;5.788;2023-08-07T06:42:16;12.77;;;3.30;;
54123;SDS011;55741;53.252;5.788;2023-08-07T06:44:42;16.98;;;4.20;;
54123;SDS011;55741;53.252;5.788;2023-08-07T06:47:08;12.30;;;3.50;;
54123;SDS011;55741;53.252;5.788;2023-08-07T06:49:34;10.35;;;3.03;;
54123;SDS011;55741;53.252;5.788;2023-08-07T06:52:00;15.90;;;4.00;;
54123;SDS011;55741;53.252;5.788;2023-08-07T06:54:27;14.95;;;4.30;;
54123;SDS011;55741;53.252;5.788;2023-08-07T06:56:53;22.80;;;5.15;;
54123;SDS011;55741;53.252;5.788;2023-08-07T06:59:18;26.27;;;5.30;;
54123;SDS011;55741;53.252;5.788;2023-08-07T07:01:44;18.60;;;4.47;;
54123;SDS011;55741;53.252;5.788;2023-08-07T07:04:10;16.48;;;4.40;;
54123;SDS011;55741;53.252;5.788;2023-08-07T07:06:36;20.85;;;3.90;;
54123;SDS011;55741;53.252;5.788;2023-08-07T07:09:03;13.88;;;4.00;;
54123;SDS011;55741;53.252;5.788;2023-08-07T07:11:30;11.50;;;2.88;;
54123;SDS011;55741;53.252;5.788;2023-08-07T07:13:55;16.50;;;3.83;;
54123;SDS011;55741;53.252;5.788;2023-08-07T07:16:21;13.82;;;3.75;;
54123;SDS011;55741;53.252;5.788;2023-08-07T07:18:48;9.70;;;3.67;;
54123;SDS011;55741;53.252;5.788;2023-08-07T07:21:15;14.88;;;5.00;;
54123;SDS011;55741;53.252;5.788;2023-08-07T07:23:41;13.00;;;3.65;;
54123;SDS011;55741;53.252;5.788;2023-08-07T07:26:07;13.23;;;4.75;;
54123;SDS011;55741;53.252;5.788;2023-08-07T07:28:33;15.38;;;3.67;;
54123;SDS011;55741;53.252;5.788;2023-08-07T07:30:59;12.05;;;3.30;;
54123;SDS011;55741;53.252;5.788;2023-08-07T07:33:25;17.15;;;4.60;;
54123;SDS011;55741;53.252;5.788;2023-08-07T07:35:50;15.85;;;4.28;;
54123;SDS011;55741;53.252;5.788;2023-08-07T07:38:16;18.70;;;4.28;;
54123;SDS011;55741;53.252;5.788;2023-08-07T07:40:42;16.85;;;4.75;;
54123;SDS011;55741;53.252;5.788;2023-08-07T07:43:09;19.02;;;4.90;;
54123;SDS011;55741;53.252;5.788;2023-08-07T07:45:35;18.23;;;4.05;;
54123;SDS011;55741;53.252;5.788;2023-08-07T07:48:04;20.90;;;4.40;;
54123;SDS011;55741;53.252;5.788;2023-08-07T07:50:31;10.38;;;3.95;;
54123;SDS011;55741;53.252;5.788;2023-08-07T07:52:57;16.15;;;3.33;;
54123;SDS011;55741;53.252;5.788;2023-08-07T07:55:24;13.23;;;3.65;;
54123;SDS011;55741;53.252;5.788;2023-08-07T07:57:50;13.50;;;3.92;;
54123;SDS011;55741;53.252;5.788;2023-08-07T08:00:16;10.15;;;3.35;;
54123;SDS011;55741;53.252;5.788;2023-08-07T08:02:43;14.82;;;3.50;;
54123;SDS011;55741;53.252;5.788;2023-08-07T08:05:09;12.07;;;3.45;;
54123;SDS011;55741;53.252;5.788;2023-08-07T08:07:38;24.55;;;4.25;;
54123;SDS011;55741;53.252;5.788;2023-08-07T08:10:07;9.68;;;3.05;;
54123;SDS011;55741;53.252;5.788;2023-08-07T08:12:34;13.77;;;3.42;;
54123;SDS011;55741;53.252;5.788;2023-08-07T08:15:01;11.90;;;3.40;;
54123;SDS011;55741;53.252;5.788;2023-08-07T08:17:28;14.88;;;4.78;;
54123;SDS011;55741;53.252;5.788;2023-08-07T08:19:54;20.65;;;4.85;;
54123;SDS011;55741;53.252;5.788;2023-08-07T08:22:20;13.43;;;3.90;;
54123;SDS011;55741;53.252;5.788;2023-08-07T08:24:45;11.25;;;3.15;;
54123;SDS011;55741;53.252;5.788;2023-08-07T08:27:13;11.38;;;3.60;;
54123;SDS011;55741;53.252;5.788;2023-08-07T08:29:38;8.48;;;3.00;;
54123;SDS011;55741;53.252;5.788;2023-08-07T08:32:04;6.68;;;2.70;;
54123;SDS011;55741;53.252;5.788;2023-08-07T08:34:31;9.65;;;3.10;;
54123;SDS011;55741;53.252;5.788;2023-08-07T08:36:56;6.78;;;2.75;;
54123;SDS011;55741;53.252;5.788;2023-08-07T08:39:22;6.88;;;2.40;;
54123;SDS011;55741;53.252;5.788;2023-08-07T08:41:49;14.88;;;3.42;;
54123;SDS011;55741;53.252;5.788;2023-08-07T08:44:16;18.17;;;3.38;;
54123;SDS011;55741;53.252;5.788;2023-08-07T08:46:44;14.18;;;3.20;;
54123;SDS011;55741;53.252;5.788;2023-08-07T08:49:13;12.10;;;3.10;;
54123;SDS011;55741;53.252;5.788;2023-08-07T08:51:44;11.32;;;2.83;;
54123;SDS011;55741;53.252;5.788;2023-08-07T08:54:11;19.00;;;3.53;;
54123;SDS011;55741;53.252;5.788;2023-08-07T08:56:38;12.68;;;3.83;;
54123;SDS011;55741;53.252;5.788;2023-08-07T08:59:04;17.55;;;3.33;;
54123;SDS011;55741;53.252;5.788;2023-08-07T09:01:30;12.25;;;3.42;;
54123;SDS011;55741;53.252;5.788;2023-08-07T09:03:57;14.88;;;3.10;;
54123;SDS011;55741;53.252;5.788;2023-08-07T09:06:25;19.45;;;3.20;;
54123;SDS011;55741;53.252;5.788;2023-08-07T09:08:52;12.52;;;3.20;;
54123;SDS011;55741;53.252;5.788;2023-08-07T09:11:18;6.88;;;2.85;;
54123;SDS011;55741;53.252;5.788;2023-08-07T09:13:45;14.85;;;3.45;;
54123;SDS011;55741;53.252;5.788;2023-08-07T09:16:13;12.38;;;3.53;;
54123;SDS011;55741;53.252;5.788;2023-08-07T09:18:40;11.90;;;2.92;;
54123;SDS011;55741;53.252;5.788;2023-08-07T09:21:07;8.32;;;3.55;;
54123;SDS011;55741;53.252;5.788;2023-08-07T09:23:33;11.32;;;3.40;;
54123;SDS011;55741;53.252;5.788;2023-08-07T09:26:03;9.98;;;3.08;;
54123;SDS011;55741;53.252;5.788;2023-08-07T09:28:30;13.07;;;3.90;;
54123;SDS011;55741;53.252;5.788;2023-08-07T09:30:58;12.57;;;2.95;;
54123;SDS011;55741;53.252;5.788;2023-08-07T09:33:30;12.07;;;3.58;;
54123;SDS011;55741;53.252;5.788;2023-08-07T09:36:00;10.27;;;3.08;;
54123;SDS011;55741;53.252;5.788;2023-08-07T09:38:30;12.43;;;3.20;;
54123;SDS011;55741;53.252;5.788;2023-08-07T09:40:59;14.43;;;3.80;;
54123;SDS011;55741;53.252;5.788;2023-08-07T09:43:26;11.95;;;3.75;;
54123;SDS011;55741;53.252;5.788;2023-08-07T09:46:01;13.32;;;3.30;;
54123;SDS011;55741;53.252;5.788;2023-08-07T09:48:29;13.93;;;3.65;;
54123;SDS011;55741;53.252;5.788;2023-08-07T09:51:00;13.38;;;3.40;;
54123;SDS011;55741;53.252;5.788;2023-08-07T09:53:29;15.00;;;3.00;;
54123;SDS011;55741;53.252;5.788;2023-08-07T09:55:55;14.90;;;3.38;;
54123;SDS011;55741;53.252;5.788;2023-08-07T09:58:22;12.40;;;3.65;;
54123;SDS011;55741;53.252;5.788;2023-08-07T10:00:49;8.90;;;3.30;;
54123;SDS011;55741;53.252;5.788;2023-08-07T10:03:15;12.05;;;3.13;;
54123;SDS011;55741;53.252;5.788;2023-08-07T10:05:43;13.73;;;3.55;;
54123;SDS011;55741;53.252;5.788;2023-08-07T10:08:10;10.52;;;3.00;;
54123;SDS011;55741;53.252;5.788;2023-08-07T10:10:37;8.63;;;3.13;;
54123;SDS011;55741;53.252;5.788;2023-08-07T10:13:04;12.55;;;3.30;;
54123;SDS011;55741;53.252;5.788;2023-08-07T10:15:31;16.05;;;3.55;;
54123;SDS011;55741;53.252;5.788;2023-08-07T10:17:58;9.35;;;3.10;;
54123;SDS011;55741;53.252;5.788;2023-08-07T10:20:27;12.73;;;2.60;;
54123;SDS011;55741;53.252;5.788;2023-08-07T10:22:59;12.00;;;3.33;;
54123;SDS011;55741;53.252;5.788;2023-08-07T10:25:29;9.68;;;2.85;;
54123;SDS011;55741;53.252;5.788;2023-08-07T10:27:56;11.45;;;2.50;;
54123;SDS011;55741;53.252;5.788;2023-08-07T10:30:23;8.27;;;2.47;;
54123;SDS011;55741;53.252;5.788;2023-08-07T10:32:50;11.77;;;3.10;;
54123;SDS011;55741;53.252;5.788;2023-08-07T10:35:51;9.05;;;2.67;;
54123;SDS011;55741;53.252;5.788;2023-08-07T10:38:13;9.30;;;2.97;;
54123;SDS011;55741;53.252;5.788;2023-08-07T10:43:32;8.25;;;3.22;;
54123;SDS011;55741;53.252;5.788;2023-08-07T10:48:46;9.52;;;2.70;;
54123;SDS011;55741;53.252;5.788;2023-08-07T10:51:18;13.07;;;2.65;;
54123;SDS011;55741;53.252;5.788;2023-08-07T10:53:45;9.90;;;2.65;;
54123;SDS011;55741;53.252;5.788;2023-08-07T10:56:17;7.40;;;2.60;;
54123;SDS011;55741;53.252;5.788;2023-08-07T10:59:08;7.22;;;2.13;;
54123;SDS011;55741;53.252;5.788;2023-08-07T11:01:48;9.55;;;3.25;;
54123;SDS011;55741;53.252;5.788;2023-08-07T11:04:16;9.70;;;2.97;;
54123;SDS011;55741;53.252;5.788;2023-08-07T11:06:43;12.52;;;3.85;;
54123;SDS011;55741;53.252;5.788;2023-08-07T11:09:12;12.93;;;3.25;;
54123;SDS011;55741;53.252;5.788;2023-08-07T11:14:10;11.50;;;3.47;;
54123;SDS011;55741;53.252;5.788;2023-08-07T11:16:41;12.38;;;3.35;;
54123;SDS011;55741;53.252;5.788;2023-08-07T11:19:07;11.80;;;3.72;;
54123;SDS011;55741;53.252;5.788;2023-08-07T11:21:34;12.95;;;3.50;;
54123;SDS011;55741;53.252;5.788;2023-08-07T11:24:00;12.30;;;3.03;;
54123;SDS011;55741;53.252;5.788;2023-08-07T11:26:26;13.27;;;3.40;;
54123;SDS011;55741;53.252;5.788;2023-08-07T11:28:53;13.70;;;3.45;;
54123;SDS011;55741;53.252;5.788;2023-08-07T11:31:20;10.13;;;3.17;;
54123;SDS011;55741;53.252;5.788;2023-08-07T11:33:55;8.65;;;2.97;;
54123;SDS011;55741;53.252;5.788;2023-08-07T11:36:25;8.25;;;2.80;;
54123;SDS011;55741;53.252;5.788;2023-08-07T11:38:51;8.05;;;2.90;;
54123;SDS011;55741;53.252;5.788;2023-08-07T11:41:17;11.27;;;2.85;;
54123;SDS011;55741;53.252;5.788;2023-08-07T11:43:44;7.65;;;2.78;;
54123;SDS011;55741;53.252;5.788;2023-08-07T11:46:15;8.75;;;2.78;;
54123;SDS011;55741;53.252;5.788;2023-08-07T11:48:42;13.07;;;4.40;;
54123;SDS011;55741;53.252;5.788;2023-08-07T11:51:09;8.13;;;2.90;;
54123;SDS011;55741;53.252;5.788;2023-08-07T11:53:36;8.70;;;3.20;;
54123;SDS011;55741;53.252;5.788;2023-08-07T11:56:05;4.43;;;1.90;;
54123;SDS011;55741;53.252;5.788;2023-08-07T11:58:39;6.22;;;2.20;;
54123;SDS011;55741;53.252;5.788;2023-08-07T12:01:13;9.23;;;2.25;;
54123;SDS011;55741;53.252;5.788;2023-08-07T12:03:51;9.13;;;2.47;;
54123;SDS011;55741;53.252;5.788;2023-08-07T12:06:25;8.95;;;2.30;;
54123;SDS011;55741;53.252;5.788;2023-08-07T12:08:55;4.30;;;2.28;;
54123;SDS011;55741;53.252;5.788;2023-08-07T12:11:22;11.32;;;3.03;;
54123;SDS011;55741;53.252;5.788;2023-08-07T12:13:48;7.22;;;2.45;;
54123;SDS011;55741;53.252;5.788;2023-08-07T12:16:14;9.43;;;2.78;;
54123;SDS011;55741;53.252;5.788;2023-08-07T12:18:44;8.07;;;2.92;;
54123;SDS011;55741;53.252;5.788;2023-08-07T12:21:17;11.35;;;3.08;;
54123;SDS011;55741;53.252;5.788;2023-08-07T12:23:49;7.93;;;3.17;;
54123;SDS011;55741;53.252;5.788;2023-08-07T12:26:16;13.25;;;3.40;;
54123;SDS011;55741;53.252;5.788;2023-08-07T12:28:42;16.63;;;3.40;;
54123;SDS011;55741;53.252;5.788;2023-08-07T12:31:09;13.00;;;3.20;;
54123;SDS011;55741;53.252;5.788;2023-08-07T12:33:35;12.07;;;3.45;;
54123;SDS011;55741;53.252;5.788;2023-08-07T12:36:01;11.65;;;3.78;;
54123;SDS011;55741;53.252;5.788;2023-08-07T12:38:27;9.10;;;3.30;;
54123;SDS011;55741;53.252;5.788;2023-08-07T12:40:54;14.32;;;3.75;;
54123;SDS011;55741;53.252;5.788;2023-08-07T12:43:20;6.60;;;3.20;;
54123;SDS011;55741;53.252;5.788;2023-08-07T12:45:46;13.65;;;3.97;;
54123;SDS011;55741;53.252;5.788;2023-08-07T12:48:13;11.05;;;3.78;;
54123;SDS011;55741;53.252;5.788;2023-08-07T12:50:39;10.68;;;3.95;;
54123;SDS011;55741;53.252;5.788;2023-08-07T12:53:06;11.23;;;3.45;;
54123;SDS011;55741;53.252;5.788;2023-08-07T12:55:33;10.63;;;4.00;;
54123;SDS011;55741;53.252;5.788;2023-08-07T12:57:59;11.65;;;3.67;;
54123;SDS011;55741;53.252;5.788;2023-08-07T13:00:24;8.57;;;3.28;;
54123;SDS011;55741;53.252;5.788;2023-08-07T13:02:51;11.40;;;3.28;;
54123;SDS011;55741;53.252;5.788;2023-08-07T13:05:19;10.57;;;3.47;;
54123;SDS011;55741;53.252;5.788;2023-08-07T13:07:46;11.20;;;3.40;;
54123;SDS011;55741;53.252;5.788;2023-08-07T13:10:14;12.00;;;3.25;;
54123;SDS011;55741;53.252;5.788;2023-08-07T13:12:41;10.70;;;3.47;;
54123;SDS011;55741;53.252;5.788;2023-08-07T13:15:09;9.68;;;3.28;;
54123;SDS011;55741;53.252;5.788;2023-08-07T13:17:39;10.50;;;3.30;;
54123;SDS011;55741;53.252;5.788;2023-08-07T13:20:06;8.68;;;2.60;;
54123;SDS011;55741;53.252;5.788;2023-08-07T13:22:36;11.95;;;2.92;;
54123;SDS011;55741;53.252;5.788;2023-08-07T13:25:03;11.25;;;2.67;;
54123;SDS011;55741;53.252;5.788;2023-08-07T13:27:30;8.75;;;2.75;;
54123;SDS011;55741;53.252;5.788;2023-08-07T13:29:56;9.82;;;3.30;;
54123;SDS011;55741;53.252;5.788;2023-08-07T13:32:22;8.93;;;3.53;;
54123;SDS011;55741;53.252;5.788;2023-08-07T13:34:48;9.35;;;3.13;;
54123;SDS011;55741;53.252;5.788;2023-08-07T13:37:14;9.38;;;3.92;;
54123;SDS011;55741;53.252;5.788;2023-08-07T13:39:40;12.65;;;3.70;;
54123;SDS011;55741;53.252;5.788;2023-08-07T13:42:07;10.60;;;3.17;;
54123;SDS011;55741;53.252;5.788;2023-08-07T13:44:33;10.45;;;2.78;;
54123;SDS011;55741;53.252;5.788;2023-08-07T13:46:59;11.23;;;3.55;;
54123;SDS011;55741;53.252;5.788;2023-08-07T13:49:26;12.70;;;3.30;;
54123;SDS011;55741;53.252;5.788;2023-08-07T13:51:52;11.75;;;3.17;;
54123;SDS011;55741;53.252;5.788;2023-08-07T13:54:18;8.95;;;3.20;;
54123;SDS011;55741;53.252;5.788;2023-08-07T13:56:44;8.98;;;2.85;;
54123;SDS011;55741;53.252;5.788;2023-08-07T13:59:09;7.70;;;3.17;;
54123;SDS011;55741;53.252;5.788;2023-08-07T14:01:35;9.00;;;3.47;;
54123;SDS011;55741;53.252;5.788;2023-08-07T14:04:02;8.50;;;2.58;;
54123;SDS011;55741;53.252;5.788;2023-08-07T14:06:28;7.85;;;2.83;;
54123;SDS011;55741;53.252;5.788;2023-08-07T14:08:54;5.93;;;2.60;;
54123;SDS011;55741;53.252;5.788;2023-08-07T14:11:20;9.63;;;2.83;;
54123;SDS011;55741;53.252;5.788;2023-08-07T14:13:46;8.32;;;2.67;;
54123;SDS011;55741;53.252;5.788;2023-08-07T14:16:12;9.82;;;2.83;;
54123;SDS011;55741;53.252;5.788;2023-08-07T14:18:38;9.32;;;3.00;;
54123;SDS011;55741;53.252;5.788;2023-08-07T14:21:04;8.82;;;2.50;;
54123;SDS011;55741;53.252;5.788;2023-08-07T14:23:30;8.50;;;2.50;;
54123;SDS011;55741;53.252;5.788;2023-08-07T14:25:56;4.80;;;2.30;;
54123;SDS011;55741;53.252;5.788;2023-08-07T14:28:22;9.32;;;2.58;;
54123;SDS011;55741;53.252;5.788;2023-08-07T14:30:48;6.85;;;2.53;;
54123;SDS011;55741;53.252;5.788;2023-08-07T14:33:14;8.38;;;2.90;;
54123;SDS011;55741;53.252;5.788;2023-08-07T14:35:40;10.45;;;2.70;;
54123;SDS011;55741;53.252;5.788;2023-08-07T14:38:06;7.10;;;2.40;;
54123;SDS011;55741;53.252;5.788;2023-08-07T14:40:32;6.25;;;2.00;;
54123;SDS011;55741;53.252;5.788;2023-08-07T14:42:58;5.03;;;2.17;;
54123;SDS011;55741;53.252;5.788;2023-08-07T14:45:24;11.13;;;3.17;;
54123;SDS011;55741;53.252;5.788;2023-08-07T14:47:50;15.40;;;2.90;;
54123;SDS011;55741;53.252;5.788;2023-08-07T14:50:17;8.45;;;2.55;;
54123;SDS011;55741;53.252;5.788;2023-08-07T14:52:43;9.27;;;2.38;;
54123;SDS011;55741;53.252;5.788;2023-08-07T14:55:09;6.63;;;2.30;;
54123;SDS011;55741;53.252;5.788;2023-08-07T14:57:34;9.13;;;2.72;;